createdAt,value
2019-04-07T00:01:48.190Z,110.58
2019-04-07T00:04:53.539Z,110.83
2019-04-07T00:07:59.180Z,111.94
2019-04-07T00:11:04.938Z,112.59
2019-04-07T00:14:10.508Z,113.62
2019-04-07T00:17:16.408Z,113.23
2019-04-07T00:20:23.652Z,113.85
2019-04-07T00:23:30.735Z,114.30
2019-04-07T00:26:36.130Z,114.25
2019-04-07T00:29:41.697Z,114.28
2019-04-07T00:32:48.106Z,113.11
2019-04-07T00:35:54.365Z,112.34
2019-04-07T00:38:59.708Z,112.87
2019-04-07T00:42:05.286Z,113.43
2019-04-07T00:45:10.831Z,114.03
2019-04-07T00:48:16.826Z,114.02
2019-04-07T00:51:22.285Z,114.01
2019-04-07T00:54:28.106Z,114.10
2019-04-07T00:57:34.541Z,113.97
2019-04-07T01:00:42.453Z,114.15
2019-04-07T01:03:48.151Z,113.74
2019-04-07T01:06:53.720Z,113.85
2019-04-07T01:09:59.546Z,112.10
2019-04-07T01:13:05.399Z,111.82
2019-04-07T01:16:10.830Z,112.21
2019-04-07T01:19:16.221Z,112.90
2019-04-07T01:22:21.885Z,109.85
2019-04-07T01:25:27.382Z,109.28
2019-04-07T01:28:32.848Z,110.01
2019-04-07T01:31:38.176Z,110.36
2019-04-07T01:34:43.567Z,110.52
2019-04-07T01:37:49.496Z,111.18
2019-04-07T01:41:06.246Z,110.26
2019-04-07T01:44:16.807Z,110.94
2019-04-07T01:47:30.016Z,111.02
2019-04-07T01:51:06.621Z,109.89
2019-04-07T01:54:39.825Z,110.81
2019-04-07T01:58:20.087Z,111.47
2019-04-07T02:01:36.324Z,111.76
2019-04-07T02:05:09.945Z,112.32
2019-04-07T02:08:43.355Z,112.47
2019-04-07T02:12:04.874Z,113.22
2019-04-07T02:15:21.740Z,113.17
2019-04-07T02:18:35.374Z,112.53
2019-04-07T02:21:54.746Z,111.82
2019-04-07T02:25:08.026Z,112.25
2019-04-07T02:28:36.237Z,111.99
2019-04-07T02:32:16.182Z,112.17
2019-04-07T02:35:40.444Z,113.05
2019-04-07T02:39:04.510Z,114.21
2019-04-07T02:42:34.556Z,113.67
2019-04-07T02:46:05.818Z,113.82
2019-04-07T02:49:28.814Z,114.24
2019-04-07T02:52:45.194Z,114.62
2019-04-07T02:56:03.773Z,115.51
2019-04-07T02:59:14.661Z,115.04
2019-04-07T03:02:27.930Z,115.21
2019-04-07T03:05:44.146Z,114.91
2019-04-07T03:09:15.375Z,115.24
2019-04-07T03:12:52.890Z,114.79
2019-04-07T03:16:21.077Z,113.74
2019-04-07T03:19:48.683Z,111.89
2019-04-07T03:23:24.971Z,112.35
2019-04-07T03:26:44.953Z,112.38
2019-04-07T03:29:58.757Z,112.57
2019-04-07T03:33:25.980Z,111.79
2019-04-07T03:37:23.013Z,111.73
2019-04-07T03:40:35.559Z,111.55
2019-04-07T03:43:49.508Z,111.56
2019-04-07T03:47:08.832Z,110.73
2019-04-07T03:50:36.684Z,109.86
2019-04-07T03:53:53.956Z,109.77
2019-04-07T03:57:15.128Z,110.35
2019-04-07T04:01:30.056Z,111.73
2019-04-07T04:04:45.708Z,111.70
2019-04-07T04:08:00.842Z,112.52
2019-04-07T04:11:20.477Z,111.11
2019-04-07T04:14:34.795Z,111.79
2019-04-07T04:17:40.108Z,111.96
2019-04-07T04:20:45.373Z,111.10
2019-04-07T04:23:50.633Z,110.12
2019-04-07T04:26:56.979Z,107.90
2019-04-07T04:30:03.064Z,107.58
2019-04-07T04:33:08.991Z,108.38
2019-04-07T04:36:15.519Z,109.03
2019-04-07T04:39:21.200Z,110.25
2019-04-07T04:42:26.866Z,111.13
2019-04-07T04:45:32.196Z,112.17
2019-04-07T04:48:42.966Z,113.07
2019-04-07T04:51:48.550Z,113.72
2019-04-07T04:54:54.884Z,113.54
2019-04-07T04:58:00.343Z,113.20
2019-04-07T05:01:06.364Z,112.53
2019-04-07T05:04:12.580Z,111.66
2019-04-07T05:07:19.151Z,110.14
2019-04-07T05:10:24.792Z,108.86
2019-04-07T05:13:33.267Z,106.83
2019-04-07T05:16:38.812Z,103.52
2019-04-07T05:19:44.404Z,103.27
2019-04-07T05:22:49.999Z,103.88
2019-04-07T05:25:55.703Z,101.75
2019-04-07T05:29:07.193Z,100.37
2019-04-07T05:32:12.521Z,97.24
2019-04-07T05:35:18.840Z,94.49
2019-04-07T05:38:24.247Z,92.07
2019-04-07T05:41:31.180Z,90.23
2019-04-07T05:44:37.161Z,92.14
2019-04-07T05:47:47.808Z,90.73
2019-04-07T05:50:50.364Z,85.25
2019-04-07T05:53:55.880Z,85.91
2019-04-07T05:57:01.583Z,82.48
2019-04-07T06:00:13.623Z,82.72
2019-04-07T06:03:16.591Z,81.18
2019-04-07T06:06:22.910Z,75.66
2019-04-07T06:09:28.189Z,77.19
2019-04-07T06:12:33.896Z,71.66
2019-04-07T06:15:39.264Z,75.52
2019-04-07T06:18:44.565Z,77.30
2019-04-07T06:21:51.674Z,77.26
2019-04-07T06:25:00.756Z,78.14
2019-04-07T06:28:05.451Z,79.24
2019-04-07T06:31:12.861Z,77.90
2019-04-07T06:34:18.505Z,78.94
2019-04-07T06:37:28.826Z,76.94
2019-04-07T06:40:32.204Z,78.47
2019-04-07T06:43:39.796Z,77.65
2019-04-07T06:47:03.891Z,79.22
2019-04-07T06:50:54.899Z,78.08
2019-04-07T06:54:05.959Z,78.84
2019-04-07T06:57:30.795Z,85.47
2019-04-07T07:00:46.942Z,81.66
2019-04-07T07:04:23.484Z,83.02
2019-04-07T07:07:38.038Z,78.26
2019-04-07T07:11:07.692Z,81.17
2019-04-07T07:14:42.311Z,78.39
2019-04-07T07:18:12.315Z,72.78
2019-04-07T07:21:24.632Z,75.42
2019-04-07T07:24:30.160Z,76.32
2019-04-07T07:27:38.849Z,75.47
2019-04-07T07:30:42.723Z,78.10
2019-04-07T07:33:49.556Z,80.70
2019-04-07T07:36:57.673Z,80.34
2019-04-07T07:40:02.256Z,77.13
2019-04-07T07:43:08.648Z,82.03
2019-04-07T07:46:18.101Z,78.03
2019-04-07T07:49:21.501Z,78.38
2019-04-07T07:52:28.684Z,78.33
2019-04-07T07:55:37.569Z,76.62
2019-04-07T07:58:41.373Z,79.60
2019-04-07T08:01:47.551Z,77.07
2019-04-07T08:04:56.738Z,77.61
2019-04-07T08:08:01.766Z,75.71
2019-04-07T08:11:08.818Z,75.65
2019-04-07T08:14:17.183Z,77.58
2019-04-07T08:17:21.069Z,76.37
2019-04-07T08:20:27.474Z,74.13
2019-04-07T08:23:35.165Z,73.84
2019-04-07T08:26:40.591Z,78.85
2019-04-07T08:29:46.217Z,76.78
2019-04-07T08:32:51.843Z,78.75
2019-04-07T08:35:57.756Z,79.38
2019-04-07T08:39:05.031Z,82.05
2019-04-07T08:42:14.092Z,76.83
2019-04-07T08:45:17.935Z,77.79
2019-04-07T08:48:23.318Z,78.83
2019-04-07T08:51:31.660Z,81.82
2019-04-07T08:54:36.872Z,77.95
2019-04-07T08:57:43.477Z,80.12
2019-04-07T09:00:52.647Z,79.12
2019-04-07T09:03:57.567Z,81.38
2019-04-07T09:07:04.100Z,77.10
2019-04-07T09:10:11.545Z,77.52
2019-04-07T09:13:17.461Z,80.15
2019-04-07T09:16:41.968Z,80.06
2019-04-07T09:20:10.754Z,78.24
2019-04-07T09:23:28.314Z,77.93
2019-04-07T09:26:47.334Z,84.57
2019-04-07T09:30:15.296Z,76.27
2019-04-07T09:33:38.862Z,74.17
2019-04-07T09:37:03.303Z,73.55
2019-04-07T09:40:31.844Z,70.55
2019-04-07T09:43:50.755Z,72.62
2019-04-07T09:47:21.489Z,71.68
2019-04-07T09:50:36.466Z,71.30
2019-04-07T09:54:11.115Z,71.72
2019-04-07T09:57:45.029Z,72.48
2019-04-07T10:01:12.139Z,70.56
2019-04-07T10:04:38.532Z,74.42
2019-04-07T10:08:03.356Z,72.78
2019-04-07T10:11:27.520Z,73.93
2019-04-07T10:14:53.108Z,70.97
2019-04-07T10:18:19.247Z,72.08
2019-04-07T10:21:44.040Z,72.92
2019-04-07T10:24:59.849Z,71.42
2019-04-07T10:28:36.698Z,71.08
2019-04-07T10:32:06.285Z,71.01
2019-04-07T10:35:29.563Z,71.20
2019-04-07T10:38:54.135Z,70.42
2019-04-07T10:42:21.910Z,71.41
2019-04-07T10:45:51.744Z,67.28
2019-04-07T10:49:16.017Z,69.57
2019-04-07T10:52:56.252Z,67.44
2019-04-07T10:56:26.633Z,67.67
2019-04-07T10:59:54.099Z,66.86
2019-04-07T11:03:30.445Z,68.01
2019-04-07T11:06:56.482Z,66.31
2019-04-07T11:10:37.676Z,65.41
2019-04-07T11:13:57.434Z,65.52
2019-04-07T11:17:25.396Z,66.86
2019-04-07T11:20:39.485Z,66.28
2019-04-07T11:24:16.540Z,68.29
2019-04-07T11:27:46.858Z,64.94
2019-04-07T11:31:03.908Z,64.78
2019-04-07T11:34:28.287Z,65.71
2019-04-07T11:37:51.770Z,64.83
2019-04-07T11:41:32.825Z,68.83
2019-04-07T11:44:45.633Z,62.71
2019-04-07T11:47:58.075Z,65.27
2019-04-07T11:51:16.149Z,63.25
2019-04-07T11:54:37.034Z,62.88
2019-04-07T11:58:15.531Z,62.72
2019-04-07T12:01:46.061Z,63.10
2019-04-07T12:05:12.292Z,63.23
2019-04-07T12:08:40.422Z,63.74
2019-04-07T12:12:12.578Z,63.52
2019-04-07T12:15:36.960Z,61.16
2019-04-07T12:19:00.153Z,63.42
2019-04-07T12:22:33.953Z,59.21
2019-04-07T12:25:54.736Z,60.87
2019-04-07T12:29:27.157Z,60.30
2019-04-07T12:32:49.900Z,61.62
2019-04-07T12:36:13.025Z,60.27
2019-04-07T12:39:35.261Z,61.19
2019-04-07T12:43:07.353Z,60.56
2019-04-07T12:46:38.746Z,58.45
2019-04-07T12:50:02.080Z,58.01
2019-04-07T12:53:35.338Z,59.08
2019-04-07T12:57:17.071Z,58.80
2019-04-07T13:00:53.089Z,59.72
2019-04-07T13:03:57.774Z,59.24
2019-04-07T13:07:25.239Z,58.64
2019-04-07T13:10:49.524Z,57.95
2019-04-07T13:14:12.970Z,58.30
2019-04-07T13:17:43.439Z,59.21
2019-04-07T13:21:05.380Z,59.68
2019-04-07T13:24:35.162Z,58.69
2019-04-07T13:27:44.990Z,55.61
2019-04-07T13:31:21.740Z,56.76
2019-04-07T13:34:38.619Z,57.18
2019-04-07T13:38:18.263Z,52.67
2019-04-07T13:41:40.846Z,51.98
2019-04-07T13:44:52.617Z,52.16
2019-04-07T13:48:11.579Z,53.41
2019-04-07T13:51:36.594Z,52.83
2019-04-07T13:55:04.533Z,56.34
2019-04-07T13:58:35.341Z,52.32
2019-04-07T14:02:16.579Z,52.09
2019-04-07T14:05:41.820Z,51.06
2019-04-07T14:09:15.841Z,55.83
2019-04-07T14:12:39.039Z,54.07
2019-04-07T14:15:53.194Z,53.20
2019-04-07T14:19:29.473Z,53.41
2019-04-07T14:22:59.496Z,52.83
2019-04-07T14:26:26.912Z,53.48
2019-04-07T14:29:54.840Z,53.09
2019-04-07T14:33:24.708Z,56.80
2019-04-07T14:36:52.419Z,55.06
2019-04-07T14:40:17.354Z,55.28
2019-04-07T14:43:44.668Z,54.16
2019-04-07T14:47:08.720Z,52.67
2019-04-07T14:50:38.503Z,53.39
2019-04-07T14:54:02.975Z,51.24
2019-04-07T14:57:30.895Z,52.87
2019-04-07T15:01:02.700Z,51.66
2019-04-07T15:04:06.350Z,51.03
2019-04-07T15:07:24.795Z,50.71
2019-04-07T15:10:34.073Z,49.42
2019-04-07T15:13:40.301Z,52.14
2019-04-07T15:16:45.893Z,48.84
2019-04-07T15:19:51.339Z,51.25
2019-04-07T15:22:59.260Z,51.80
2019-04-07T15:26:03.969Z,50.48
2019-04-07T15:29:10.883Z,50.37
2019-04-07T15:32:17.045Z,50.42
2019-04-07T15:35:23.277Z,51.22
2019-04-07T15:38:28.693Z,49.76
2019-04-07T15:41:34.124Z,49.99
2019-04-07T15:44:41.296Z,48.49
2019-04-07T15:47:51.335Z,47.59
2019-04-07T15:50:54.933Z,49.26
2019-04-07T15:54:00.741Z,47.83
2019-04-07T15:57:07.291Z,48.45
2019-04-07T16:00:13.927Z,48.87
2019-04-07T16:03:19.463Z,47.09
2019-04-07T16:06:25.986Z,48.31
2019-04-07T16:09:40.980Z,49.23
2019-04-07T16:12:47.439Z,49.90
2019-04-07T16:15:54.798Z,49.78
2019-04-07T16:18:59.941Z,51.64
2019-04-07T16:22:11.212Z,51.54
2019-04-07T16:25:17.739Z,50.40
2019-04-07T16:28:23.197Z,51.62
2019-04-07T16:31:31.157Z,51.48
2019-04-07T16:34:38.790Z,49.71
2019-04-07T16:37:43.801Z,49.84
2019-04-07T16:40:50.177Z,50.27
2019-04-07T16:43:56.567Z,49.48
2019-04-07T16:47:03.964Z,51.77
2019-04-07T16:50:09.783Z,55.06
2019-04-07T16:53:15.085Z,55.45
2019-04-07T16:56:22.146Z,54.22
2019-04-07T16:59:27.543Z,56.35
2019-04-07T17:02:33.848Z,55.96
2019-04-07T17:05:39.932Z,55.63
2019-04-07T17:08:46.565Z,54.51
2019-04-07T17:11:51.923Z,55.11
2019-04-07T17:14:57.811Z,54.95
2019-04-07T17:18:07.242Z,56.04
2019-04-07T17:21:18.209Z,55.46
2019-04-07T17:24:27.156Z,55.47
2019-04-07T17:27:31.480Z,56.19
2019-04-07T17:30:38.394Z,56.19
2019-04-07T17:33:43.922Z,58.31
2019-04-07T17:36:53.151Z,57.89
2019-04-07T17:40:11.207Z,59.66
2019-04-07T17:43:37.575Z,60.19
2019-04-07T17:47:00.039Z,61.62
2019-04-07T17:50:31.670Z,62.96
2019-04-07T17:54:10.180Z,62.15
2019-04-07T17:57:39.745Z,62.69
2019-04-07T18:00:59.648Z,63.71
2019-04-07T18:04:18.898Z,63.33
2019-04-07T18:07:44.690Z,65.16
2019-04-07T18:11:04.271Z,65.67
2019-04-07T18:14:38.555Z,66.78
2019-04-07T18:18:03.229Z,68.24
2019-04-07T18:21:44.932Z,74.04
2019-04-07T18:25:14.152Z,76.00
2019-04-07T18:28:30.415Z,77.56
2019-04-07T18:31:45.528Z,79.50
2019-04-07T18:35:08.709Z,80.28
2019-04-07T18:38:31.499Z,80.22
2019-04-07T18:42:10.258Z,82.55
2019-04-07T18:45:44.072Z,81.51
2019-04-07T18:49:03.281Z,80.33
2019-04-07T18:52:45.718Z,80.68
2019-04-07T18:55:59.809Z,78.17
2019-04-07T18:59:17.144Z,74.43
2019-04-07T19:02:46.439Z,75.44
2019-04-07T19:06:12.771Z,76.87
2019-04-07T19:09:37.083Z,78.03
2019-04-07T19:13:17.442Z,77.67
2019-04-07T19:16:46.753Z,78.45
2019-04-07T19:20:08.859Z,76.64
2019-04-07T19:23:28.526Z,77.38
2019-04-07T19:26:54.390Z,79.16
2019-04-07T19:30:26.570Z,80.66
2019-04-07T19:33:50.479Z,80.91
2019-04-07T19:37:17.132Z,80.25
2019-04-07T19:40:40.257Z,80.19
2019-04-07T19:44:02.429Z,78.02
2019-04-07T19:47:42.068Z,77.39
2019-04-07T19:51:06.822Z,74.47
2019-04-07T19:54:30.000Z,73.14
2019-04-07T19:57:47.061Z,73.98
2019-04-07T20:01:01.793Z,73.27
2019-04-07T20:04:23.014Z,73.42
2019-04-07T20:07:50.401Z,74.46
2019-04-07T20:11:27.731Z,73.30
2019-04-07T20:15:02.990Z,73.36
2019-04-07T20:18:24.565Z,74.18
2019-04-07T20:21:53.376Z,74.68
2019-04-07T20:25:28.714Z,74.08
2019-04-07T20:28:57.263Z,75.55
2019-04-07T20:32:42.747Z,76.57
2019-04-07T20:36:27.745Z,77.32
2019-04-07T20:39:59.250Z,77.42
2019-04-07T20:43:27.349Z,77.74
2019-04-07T20:46:59.190Z,78.47
2019-04-07T20:50:26.843Z,77.29
2019-04-07T20:53:51.502Z,77.46
2019-04-07T20:57:03.693Z,78.29
2019-04-07T21:00:26.869Z,78.47
2019-04-07T21:04:04.278Z,76.61
2019-04-07T21:07:35.418Z,77.01
2019-04-07T21:11:04.742Z,77.55
2019-04-07T21:14:18.802Z,77.69
2019-04-07T21:17:55.564Z,78.64
2019-04-07T21:21:19.968Z,76.18
2019-04-07T21:24:52.945Z,76.33
2019-04-07T21:28:07.722Z,74.88
2019-04-07T21:31:32.256Z,76.40
2019-04-07T21:34:58.284Z,74.73
2019-04-07T21:38:20.822Z,75.18
2019-04-07T21:41:36.310Z,74.12
2019-04-07T21:45:09.212Z,74.14
2019-04-07T21:48:43.263Z,72.58
2019-04-07T21:52:10.954Z,73.10
2019-04-07T21:55:43.087Z,72.98
2019-04-07T21:59:01.196Z,74.43
2019-04-07T22:02:34.677Z,71.62
2019-04-07T22:05:58.171Z,70.89
2019-04-07T22:09:14.726Z,72.85
2019-04-07T22:12:18.852Z,71.79
2019-04-07T22:15:24.834Z,70.98
2019-04-07T22:18:32.463Z,70.58
2019-04-07T22:21:38.255Z,71.24
2019-04-07T22:24:44.285Z,73.94
2019-04-07T22:27:50.439Z,75.47
2019-04-07T22:30:57.257Z,76.63
2019-04-07T22:34:04.617Z,75.91
2019-04-07T22:37:10.149Z,73.99
2019-04-07T22:40:19.419Z,75.31
2019-04-07T22:43:24.980Z,75.05
2019-04-07T22:46:31.090Z,73.93
2019-04-07T22:49:36.336Z,73.90
2019-04-07T22:52:41.848Z,76.34
2019-04-07T22:55:47.409Z,78.33
2019-04-07T22:58:52.768Z,75.08
2019-04-07T23:01:58.158Z,74.42
2019-04-07T23:05:03.390Z,71.13
2019-04-07T23:08:08.723Z,73.17
2019-04-07T23:11:14.158Z,77.88
2019-04-07T23:14:20.454Z,82.92
2019-04-07T23:17:25.934Z,84.19
2019-04-07T23:20:31.260Z,89.20
2019-04-07T23:23:36.588Z,91.34
2019-04-07T23:26:42.583Z,91.04
2019-04-07T23:29:47.947Z,90.58
2019-04-07T23:32:53.484Z,90.10
2019-04-07T23:35:59.624Z,89.74
2019-04-07T23:39:07.960Z,90.89
2019-04-07T23:42:13.457Z,91.20
2019-04-07T23:45:19.575Z,91.86
2019-04-07T23:48:25.063Z,90.47
2019-04-07T23:51:30.876Z,90.82
2019-04-07T23:54:37.178Z,91.16
2019-04-07T23:57:42.437Z,89.94
